Time;durP1;ratioP1;P1;durP2;ratioP2;P2;SDS_P1;SDS_P2;PMS_P1;PMS_P2;Temp;Humidity;BMP_temperature;BMP_pressure;BME280_temperature;BME280_humidity;BME280_pressure;Samples;Min_cycle;Max_cycle;Signal;HPM_P1;HPM_P2
2022/06/13 00:01:34;;;;;;;16.85;5.10;;;;;;;18.50;41.70;98736.84;4973876;28;20469;-68
2022/06/13 00:04:01;;;;;;;10.30;4.93;;;;;;;18.50;41.59;98730.69;4956880;28;20101;-66
2022/06/13 00:06:27;;;;;;;7.70;4.38;;;;;;;18.51;41.68;98730.38;4973718;28;20062;-68
2022/06/13 00:08:53;;;;;;;9.02;4.88;;;;;;;18.49;41.52;98729.88;4974184;28;20082;-68
2022/06/13 00:11:22;;;;;;;7.60;4.32;;;;;;;18.48;41.69;98727.53;4973608;28;20085;-67
2022/06/13 00:13:51;;;;;;;12.30;4.90;;;;;;;18.47;41.32;98728.59;4954834;28;20043;-66
2022/06/13 00:16:17;;;;;;;9.88;4.47;;;;;;;18.48;40.94;98732.88;4973974;28;20058;-67
2022/06/13 00:18:47;;;;;;;10.15;4.32;;;;;;;18.46;40.98;98730.50;4973477;28;20428;-68
2022/06/13 00:21:22;;;;;;;8.48;4.80;;;;;;;18.47;40.80;98728.59;4956403;28;20074;-65
2022/06/13 00:23:49;;;;;;;12.25;4.05;;;;;;;18.43;40.58;98719.59;4973609;28;20094;-66
2022/06/13 00:26:15;;;;;;;13.38;4.63;;;;;;;18.45;40.34;98723.56;4973885;28;20035;-67
2022/06/13 00:28:41;;;;;;;10.20;4.60;;;;;;;18.47;40.65;98718.69;4973265;28;20558;-67
2022/06/13 00:31:08;;;;;;;10.15;4.22;;;;;;;18.48;40.41;98722.94;4973408;28;20050;-67
2022/06/13 00:33:34;;;;;;;11.38;4.70;;;;;;;18.48;40.60;98716.78;4956276;28;20064;-66
2022/06/13 00:35:59;;;;;;;22.58;5.18;;;;;;;18.48;40.64;98722.94;4939998;28;20133;-67
2022/06/13 00:38:25;;;;;;;9.70;4.28;;;;;;;18.46;40.16;98725.13;4973177;28;20031;-67
2022/06/13 00:40:51;;;;;;;11.27;4.47;;;;;;;18.47;40.10;98724.06;4973215;28;20043;-70
2022/06/13 00:43:17;;;;;;;8.18;3.63;;;;;;;18.47;39.80;98717.88;4973583;28;20030;-67
2022/06/13 00:45:43;;;;;;;7.55;4.15;;;;;;;18.48;39.79;98716.78;4973329;28;20061;-66
2022/06/13 00:48:12;;;;;;;13.55;4.18;;;;;;;18.50;39.66;98720.75;4973328;28;20054;-67
2022/06/13 00:50:44;;;;;;;14.00;4.47;;;;;;;18.53;39.60;98716.66;4955879;28;20050;-68
2022/06/13 00:53:20;;;;;;;13.32;4.47;;;;;;;18.56;39.67;98713.34;4957473;28;20501;-67
2022/06/13 00:55:58;;;;;;;10.18;4.63;;;;;;;18.56;39.77;98711.47;4956067;28;20066;-66
2022/06/13 00:58:29;;;;;;;9.80;4.20;;;;;;;18.54;40.17;98708.31;4972956;28;20030;-67
2022/06/13 01:00:57;;;;;;;8.60;4.20;;;;;;;18.53;40.13;98711.28;4955462;28;20038;-67
2022/06/13 01:03:25;;;;;;;19.50;4.75;;;;;;;18.50;40.48;98710.03;4973323;28;20047;-66
2022/06/13 01:05:52;;;;;;;8.18;4.22;;;;;;;18.49;40.49;98710.31;4955489;28;20050;-67
2022/06/13 01:08:19;;;;;;;7.28;4.05;;;;;;;18.46;40.56;98709.03;4955008;28;20039;-68
2022/06/13 01:14:06;;;;;;;10.98;4.80;;;;;;;18.43;41.16;98711.53;4973358;28;20129;-67
2022/06/13 01:16:47;;;;;;;13.48;4.05;;;;;;;18.39;40.44;98709.47;4972589;28;20050;-67
2022/06/13 01:19:32;;;;;;;8.88;3.85;;;;;;;18.37;40.97;98706.28;4972562;28;20054;-67
2022/06/13 01:22:25;;;;;;;19.45;4.65;;;;;;;18.31;41.55;98702.16;4955329;28;20047;-67
2022/06/13 01:24:53;;;;;;;9.02;4.47;;;;;;;18.29;41.91;98712.38;4971697;28;20078;-67
2022/06/13 01:27:53;;;;;;;10.05;4.95;;;;;;;18.27;41.65;98709.22;4957460;28;20081;-68
2022/06/13 01:31:00;;;;;;;7.82;3.83;;;;;;;18.23;42.01;98707.44;4955546;28;20042;-67
2022/06/13 01:34:03;;;;;;;7.60;4.20;;;;;;;18.19;41.90;98709.94;4893684;29;20059;-67
2022/06/13 01:36:34;;;;;;;11.48;4.28;;;;;;;18.20;41.81;98705.38;4972622;28;20042;-67
2022/06/13 01:39:15;;;;;;;10.20;4.82;;;;;;;18.20;42.20;98708.06;4972471;28;20070;-67
2022/06/13 01:42:10;;;;;;;7.32;4.07;;;;;;;18.17;41.96;98702.19;4972449;28;20103;-66
2022/06/13 01:44:56;;;;;;;14.82;4.40;;;;;;;18.18;41.91;98700.31;4955602;28;20046;-69
2022/06/13 01:47:41;;;;;;;13.98;4.20;;;;;;;18.22;41.86;98693.25;4971490;28;20047;-66
2022/06/13 01:50:10;;;;;;;17.00;4.53;;;;;;;18.25;42.23;98692.63;4955622;28;20512;-67
2022/06/13 01:52:35;;;;;;;12.07;4.70;;;;;;;18.28;42.33;98692.03;4972436;28;20511;-67
2022/06/13 01:55:19;;;;;;;10.00;4.47;;;;;;;18.32;42.39;98698.38;4972489;28;20051;-66
2022/06/13 01:58:09;;;;;;;17.05;4.72;;;;;;;18.35;42.09;98702.31;4972345;28;20186;-67
2022/06/13 02:00:35;;;;;;;9.15;3.90;;;;;;;18.36;41.85;98695.88;4954471;28;20054;-67
2022/06/13 02:03:13;;;;;;;7.97;4.10;;;;;;;18.39;42.32;98697.94;4955058;28;20050;-66
2022/06/13 02:05:46;;;;;;;15.98;4.70;;;;;;;18.41;42.50;98701.09;4955091;28;20117;-66
2022/06/13 02:08:23;;;;;;;12.40;4.13;;;;;;;18.43;42.73;98695.44;4954429;28;20504;-66
2022/06/13 02:11:04;;;;;;;19.38;5.68;;;;;;;18.44;42.54;98694.31;4954724;28;20393;-66
2022/06/13 02:13:36;;;;;;;10.70;4.63;;;;;;;18.40;42.67;98691.47;4972078;28;20498;-68
2022/06/13 02:16:08;;;;;;;18.63;4.70;;;;;;;18.42;42.66;98694.66;4972106;28;20063;-66
2022/06/13 02:18:39;;;;;;;20.45;5.03;;;;;;;18.47;42.41;98697.22;4972141;28;20121;-65
2022/06/13 02:21:09;;;;;;;13.15;4.38;;;;;;;18.53;42.21;98698.69;4954869;28;20042;-66
2022/06/13 02:23:38;;;;;;;13.77;4.50;;;;;;;18.61;41.99;98700.59;4954416;28;20039;-66
2022/06/13 02:26:09;;;;;;;12.38;4.45;;;;;;;18.68;42.71;98694.00;4955023;28;20100;-67
2022/06/13 02:28:52;;;;;;;12.57;4.38;;;;;;;18.74;42.08;98693.63;4938578;28;20504;-67
2022/06/13 02:31:30;;;;;;;10.50;4.00;;;;;;;18.81;42.37;98690.47;4954537;28;20039;-67
2022/06/13 02:34:01;;;;;;;9.32;3.90;;;;;;;18.91;43.00;98687.50;4954766;28;20465;-66
2022/06/13 02:36:35;;;;;;;11.60;4.18;;;;;;;18.97;42.29;98689.00;4973656;28;20042;-66
2022/06/13 02:39:14;;;;;;;12.45;4.38;;;;;;;19.02;42.45;98688.81;4975645;28;20089;-67
2022/06/13 02:41:49;;;;;;;16.90;4.65;;;;;;;19.03;42.85;98687.75;4941860;28;20049;-67
2022/06/13 02:44:22;;;;;;;11.20;4.43;;;;;;;18.99;42.65;98680.59;4975564;28;20045;-66
2022/06/13 02:46:54;;;;;;;8.05;4.03;;;;;;;19.01;43.03;98683.78;4975511;28;20042;-67
2022/06/13 02:49:23;;;;;;;8.95;4.25;;;;;;;19.12;43.20;98681.59;4941645;28;20539;-67
2022/06/13 02:52:14;;;;;;;6.80;3.63;;;;;;;19.28;42.76;98675.50;4975569;28;20086;-67
2022/06/13 02:54:45;;;;;;;15.57;4.30;;;;;;;19.72;42.45;98678.31;4974708;28;20054;-66
2022/06/13 02:57:32;;;;;;;15.35;4.10;;;;;;;20.00;41.92;98677.97;4975643;28;20034;-67
2022/06/13 03:00:22;;;;;;;10.23;4.50;;;;;;;20.45;41.21;98674.97;4975090;28;20050;-66
2022/06/13 03:03:04;;;;;;;12.32;4.32;;;;;;;21.08;39.85;98674.13;4974797;28;20038;-67
2022/06/13 03:05:41;;;;;;;10.48;4.15;;;;;;;21.82;38.56;98671.97;4975475;28;20177;-66
2022/06/13 03:08:20;;;;;;;20.38;4.85;;;;;;;22.48;37.31;98670.50;4974854;28;20408;-66
2022/06/13 03:10:49;;;;;;;9.70;4.22;;;;;;;23.04;36.48;98668.91;4975454;28;20531;-66
2022/06/13 03:13:44;;;;;;;10.32;4.50;;;;;;;23.43;36.15;98663.16;4974847;28;20054;-68
2022/06/13 03:16:53;;;;;;;15.63;4.72;;;;;;;23.85;35.15;98665.56;4972723;28;20073;-66
2022/06/13 03:19:33;;;;;;;13.90;5.03;;;;;;;24.17;35.21;98666.47;4964254;28;20059;-68
2022/06/13 03:22:10;;;;;;;15.05;5.00;;;;;;;24.54;34.12;98663.63;4975096;28;20130;-67
2022/06/13 03:24:57;;;;;;;18.42;4.90;;;;;;;24.76;34.12;98673.06;4974620;28;20491;-67
2022/06/13 03:27:39;;;;;;;9.88;4.32;;;;;;;25.08;33.45;98660.28;4974389;28;20042;-67
2022/06/13 03:30:08;;;;;;;12.30;4.07;;;;;;;25.35;33.40;98670.28;4974937;28;20046;-66
2022/06/13 03:35:38;;;;;;;11.68;5.47;;;;;;;25.91;32.47;98674.56;4974621;28;20054;-66
2022/06/13 03:38:05;;;;;;;7.20;3.92;;;;;;;26.26;31.75;98674.50;4974773;28;20464;-68
2022/06/13 03:40:32;;;;;;;9.43;4.57;;;;;;;26.35;31.56;98673.50;4957096;28;20037;-67
2022/06/13 03:43:09;;;;;;;9.10;3.90;;;;;;;26.22;32.02;98670.16;4956716;28;20078;-67
2022/06/13 03:45:38;;;;;;;7.43;4.50;;;;;;;26.39;31.84;98658.06;4957374;28;20162;-67
2022/06/13 03:48:14;;;;;;;6.93;4.18;;;;;;;26.22;32.32;98660.06;4956277;28;20047;-67
2022/06/13 03:50:52;;;;;;;8.18;4.25;;;;;;;26.01;33.08;98659.66;4957136;28;20042;-68
2022/06/13 03:53:39;;;;;;;6.90;3.90;;;;;;;26.07;32.97;98658.22;4974195;28;20062;-66
2022/06/13 03:56:24;;;;;;;10.68;4.45;;;;;;;25.97;33.04;98665.03;4957720;28;20058;-67
2022/06/13 03:59:05;;;;;;;10.10;4.40;;;;;;;25.93;33.32;98657.94;4940454;28;20042;-67
2022/06/13 04:01:37;;;;;;;10.98;4.35;;;;;;;25.91;33.71;98654.78;4956936;28;20035;-68
2022/06/13 04:04:03;;;;;;;11.68;4.28;;;;;;;26.09;33.40;98660.56;4956571;28;20070;-66
2022/06/13 04:06:34;;;;;;;14.15;5.15;;;;;;;25.96;33.97;98658.00;4974025;28;20047;-68
2022/06/13 04:09:22;;;;;;;9.85;5.13;;;;;;;25.92;33.84;98657.16;4973751;28;20390;-65
2022/06/13 04:12:09;;;;;;;12.90;4.80;;;;;;;25.51;34.56;98662.09;4973283;28;20050;-68
2022/06/13 04:14:50;;;;;;;11.30;5.00;;;;;;;25.33;35.06;98660.91;4962506;28;20049;-67
2022/06/13 04:17:40;;;;;;;9.48;4.50;;;;;;;25.37;35.09;98661.75;4973791;28;20496;-67
2022/06/13 04:20:27;;;;;;;7.15;4.40;;;;;;;25.56;35.17;98661.00;4956097;28;20590;-67
2022/06/13 04:23:21;;;;;;;6.93;4.63;;;;;;;25.81;34.80;98651.47;4973938;28;20038;-67
2022/06/13 04:25:52;;;;;;;8.38;4.07;;;;;;;26.27;34.15;98659.78;4960115;28;20046;-67
2022/06/13 04:28:21;;;;;;;5.97;4.05;;;;;;;26.69;33.59;98652.78;4973698;28;20489;-67
2022/06/13 04:30:49;;;;;;;10.50;4.63;;;;;;;26.56;33.49;98654.91;4973453;28;20105;-68
2022/06/13 04:33:27;;;;;;;9.40;4.78;;;;;;;26.59;33.46;98651.47;4973627;28;20038;-66
2022/06/13 04:35:53;;;;;;;6.30;4.75;;;;;;;26.66;33.88;98659.72;4937129;29;20058;-66
2022/06/13 04:38:20;;;;;;;9.90;4.55;;;;;;;26.68;33.64;98652.00;4949412;28;20049;-67
2022/06/13 04:40:54;;;;;;;6.35;4.00;;;;;;;26.56;34.35;98659.53;4956230;28;20109;-67
2022/06/13 04:43:23;;;;;;;10.35;5.22;;;;;;;26.42;34.66;98649.97;4972940;28;20094;-65
2022/06/13 04:45:55;;;;;;;6.20;4.00;;;;;;;26.52;34.66;98647.81;4955820;28;20511;-65
2022/06/13 04:48:21;;;;;;;8.80;5.03;;;;;;;26.70;35.05;98651.63;4939898;28;20178;-66
2022/06/13 04:50:52;;;;;;;10.95;4.43;;;;;;;26.92;34.15;98650.06;4956321;28;20046;-67
2022/06/13 04:53:29;;;;;;;6.93;4.95;;;;;;;26.80;34.65;98651.03;4955810;28;20041;-67
2022/06/13 04:55:55;;;;;;;15.02;5.30;;;;;;;26.39;35.38;98647.97;4973198;28;20101;-66
2022/06/13 04:58:30;;;;;;;6.53;5.55;;;;;;;26.32;35.35;98649.75;4972351;28;20043;-67
2022/06/13 05:01:10;;;;;;;10.50;5.75;;;;;;;26.22;35.85;98651.91;4955596;28;20047;-66
2022/06/13 05:03:44;;;;;;;8.73;5.22;;;;;;;26.49;35.53;98654.72;4923870;28;20093;-66
2022/06/13 05:06:42;;;;;;;7.88;5.57;;;;;;;26.65;35.33;98660.06;4955974;28;20050;-66
2022/06/13 05:09:10;;;;;;;9.02;5.45;;;;;;;27.00;34.91;98654.44;4971667;28;20428;-67
2022/06/13 05:11:36;;;;;;;10.10;5.60;;;;;;;27.19;34.42;98656.31;4973095;28;20070;-67
2022/06/13 05:14:12;;;;;;;11.70;5.47;;;;;;;27.04;34.77;98657.22;4972519;28;20500;-67
2022/06/13 05:16:59;;;;;;;8.07;5.13;;;;;;;26.70;36.57;98660.56;4955375;28;20062;-67
2022/06/13 05:19:47;;;;;;;10.50;6.07;;;;;;;26.88;35.69;98658.13;4954760;28;20524;-70
2022/06/13 05:22:32;;;;;;;10.38;5.90;;;;;;;26.90;35.52;98653.13;4972494;28;20090;-67
2022/06/13 05:25:17;;;;;;;8.48;5.65;;;;;;;26.78;35.75;98650.59;4972682;28;20133;-66
2022/06/13 05:27:42;;;;;;;10.05;6.75;;;;;;;26.57;36.33;98655.69;4972507;28;20043;-66
2022/06/13 05:30:13;;;;;;;8.50;5.80;;;;;;;26.20;37.37;98654.19;4972613;28;20046;-69
2022/06/13 05:32:39;;;;;;;13.38;6.00;;;;;;;25.89;38.29;98644.31;4971979;28;20397;-67
2022/06/13 05:35:05;;;;;;;9.70;5.88;;;;;;;25.65;38.88;98649.94;4968547;28;20047;-69
2022/06/13 05:37:30;;;;;;;9.30;5.80;;;;;;;25.43;39.73;98649.50;4951309;29;20402;-67
2022/06/13 05:39:57;;;;;;;11.50;5.82;;;;;;;25.50;39.48;98643.44;4951184;29;20134;-68
2022/06/13 05:42:23;;;;;;;12.10;6.55;;;;;;;25.61;40.40;98645.25;4952130;29;20078;-69
2022/06/13 05:44:48;;;;;;;11.35;5.88;;;;;;;25.82;40.02;98650.38;4951653;29;20054;-66
2022/06/13 05:47:18;;;;;;;9.05;5.15;;;;;;;26.18;40.03;98648.38;4952002;29;20398;-64
2022/06/13 05:49:44;;;;;;;8.60;5.93;;;;;;;26.36;39.24;98645.97;4948859;29;20061;-65
2022/06/13 05:52:11;;;;;;;8.52;5.38;;;;;;;26.53;38.70;98649.38;4948874;29;20047;-64
2022/06/13 05:54:36;;;;;;;9.63;5.15;;;;;;;26.72;38.13;98639.25;4952469;28;20047;-65
2022/06/13 05:57:02;;;;;;;11.45;5.57;;;;;;;26.93;37.88;98638.03;4970424;28;20069;-66
2022/06/13 05:59:28;;;;;;;8.02;5.65;;;;;;;26.96;37.61;98635.34;4970840;28;20043;-65
2022/06/13 06:01:54;;;;;;;11.70;5.78;;;;;;;26.88;38.10;98632.88;4937733;28;20039;-64
2022/06/13 06:04:19;;;;;;;8.90;6.03;;;;;;;26.82;38.17;98640.56;4969976;28;20051;-65
2022/06/13 06:06:45;;;;;;;8.25;5.38;;;;;;;26.70;38.17;98635.31;4971377;28;20041;-66
2022/06/13 06:09:12;;;;;;;6.75;5.35;;;;;;;26.56;38.34;98637.78;4970424;28;20048;-66
2022/06/13 06:11:38;;;;;;;9.82;5.40;;;;;;;26.69;38.48;98639.19;4956503;28;20061;-65
2022/06/13 06:14:04;;;;;;;8.20;5.00;;;;;;;26.76;38.94;98636.56;4957068;28;20548;-65
2022/06/13 06:16:30;;;;;;;12.25;5.57;;;;;;;26.65;38.77;98605.72;4974643;28;20086;-64
2022/06/13 06:18:55;;;;;;;8.63;6.60;;;;;;;26.79;39.25;98633.13;4974003;28;20053;-66
2022/06/13 06:21:22;;;;;;;7.18;5.15;;;;;;;26.61;39.34;98642.94;4973947;28;20030;-63
2022/06/13 06:23:50;;;;;;;20.27;6.13;;;;;;;26.45;40.05;98635.66;4926852;28;20508;-64
2022/06/13 06:26:18;;;;;;;7.78;5.38;;;;;;;26.28;40.36;98633.41;4956628;28;20349;-66
2022/06/13 06:28:44;;;;;;;7.35;5.28;;;;;;;26.24;40.54;98638.00;4956759;28;20125;-67
2022/06/13 06:31:10;;;;;;;8.77;5.90;;;;;;;26.60;41.03;98638.66;4975225;28;20141;-64
2022/06/13 06:33:35;;;;;;;9.48;5.75;;;;;;;26.73;40.76;98634.59;4975328;28;20068;-66
2022/06/13 06:36:01;;;;;;;11.48;5.65;;;;;;;26.75;41.14;98640.47;4957401;28;20038;-66
2022/06/13 06:38:28;;;;;;;7.60;5.57;;;;;;;26.71;40.65;98634.19;4976020;28;20452;-66
2022/06/13 06:40:54;;;;;;;8.40;5.22;;;;;;;26.79;40.98;98640.50;4957474;28;20134;-65
2022/06/13 06:43:19;;;;;;;7.07;5.15;;;;;;;26.64;41.99;98644.91;4975747;28;20053;-64
2022/06/13 06:45:45;;;;;;;10.10;6.78;;;;;;;26.46;41.99;98648.09;4957622;28;20479;-65
2022/06/13 06:48:17;;;;;;;6.60;5.40;;;;;;;26.49;41.97;98639.25;4957239;28;20043;-66
2022/06/13 06:50:44;;;;;;;9.57;5.15;;;;;;;26.54;41.60;98637.38;4961350;28;20141;-64
2022/06/13 06:53:13;;;;;;;8.43;5.53;;;;;;;26.41;42.23;98636.72;4994370;28;20539;-62
2022/06/13 07:01:10;;;;;;;5.75;4.97;;;;;;;25.54;43.43;98642.38;4974595;28;20043;-61
2022/06/13 07:03:35;;;;;;;9.15;6.65;;;;;;;25.13;44.51;98641.84;4974695;28;20121;-62
2022/06/13 07:06:01;;;;;;;5.97;4.72;;;;;;;24.83;44.17;98646.94;4973653;28;20121;-63
2022/06/13 07:08:27;;;;;;;5.80;4.65;;;;;;;24.64;44.54;98649.53;4956967;28;20050;-61
2022/06/13 07:11:53;;;;;;;8.80;4.32;;;;;;;24.63;44.64;98635.22;4974302;28;20117;-62
2022/06/13 07:13:40;;;;;;;6.68;3.92;;;;;;;24.74;43.96;98640.09;4970499;28;20061;-61
2022/06/13 07:16:06;;;;;;;4.70;3.92;;;;;;;24.89;43.96;98642.81;4979376;28;20054;-62
2022/06/13 07:18:32;;;;;;;4.25;3.70;;;;;;;25.00;43.50;98645.78;4966428;28;20043;-61
2022/06/13 07:20:57;;;;;;;4.93;4.10;;;;;;;25.06;43.78;98651.72;4957952;28;20081;-60
2022/06/13 07:23:23;;;;;;;5.97;3.70;;;;;;;25.02;44.03;98635.38;4954977;28;20043;-62
2022/06/13 07:25:49;;;;;;;6.18;4.00;;;;;;;25.22;43.80;98638.97;4954509;28;20045;-64
2022/06/13 07:28:14;;;;;;;5.65;3.75;;;;;;;25.31;43.45;98639.56;4955059;28;20043;-61
2022/06/13 07:30:40;;;;;;;4.32;3.90;;;;;;;25.31;43.85;98641.47;4921123;29;20054;-60
2022/06/13 07:33:06;;;;;;;8.13;3.78;;;;;;;25.34;43.04;98648.91;4939550;28;20058;-62
2022/06/13 07:35:33;;;;;;;7.90;4.15;;;;;;;25.31;43.23;98639.56;4972639;28;20046;-63
2022/06/13 07:38:16;;;;;;;11.15;4.20;;;;;;;25.33;43.56;98637.28;4972439;28;20038;-60
2022/06/13 07:40:44;;;;;;;9.45;6.45;;;;;;;25.29;43.86;98638.31;4972963;28;20077;-62
2022/06/13 07:43:29;;;;;;;14.38;6.43;;;;;;;25.31;43.81;98642.25;4955338;28;20481;-61
2022/06/13 07:45:57;;;;;;;8.90;4.72;;;;;;;25.28;42.76;98637.53;4956953;28;20050;-61
2022/06/13 07:48:24;;;;;;;6.05;4.25;;;;;;;25.11;42.85;98633.25;4973664;28;20047;-63
2022/06/13 07:50:50;;;;;;;5.00;4.18;;;;;;;25.01;42.92;98639.22;4955090;28;20051;-61
2022/06/13 07:53:16;;;;;;;7.68;4.38;;;;;;;25.02;43.29;98638.06;4973375;28;20054;-62
2022/06/13 07:55:42;;;;;;;11.13;4.60;;;;;;;25.02;43.73;98629.94;4973220;28;20051;-63
2022/06/13 07:58:20;;;;;;;10.18;4.40;;;;;;;24.95;43.82;98629.78;4955395;28;20047;-62
2022/06/13 08:00:48;;;;;;;8.13;4.18;;;;;;;25.00;43.18;98634.94;4971098;28;20057;-62
2022/06/13 08:03:23;;;;;;;5.15;4.57;;;;;;;25.00;43.62;98628.72;4972849;28;20038;-63
2022/06/13 08:05:50;;;;;;;7.65;5.22;;;;;;;24.86;44.22;98627.25;4958807;28;20046;-61
2022/06/13 08:08:17;;;;;;;8.02;6.75;;;;;;;24.81;44.95;98632.16;4974327;28;20042;-61
2022/06/13 08:10:43;;;;;;;9.95;5.60;;;;;;;24.81;45.17;98629.44;4972147;28;20512;-61
2022/06/13 08:13:12;;;;;;;6.68;4.82;;;;;;;24.79;45.83;98631.72;4972741;28;20512;-62
2022/06/13 08:15:38;;;;;;;6.15;5.03;;;;;;;24.81;45.85;98640.28;4955929;28;20141;-62
2022/06/13 08:18:04;;;;;;;5.95;4.20;;;;;;;24.88;44.81;98625.00;4955475;28;20043;-60
2022/06/13 08:20:30;;;;;;;6.13;4.43;;;;;;;24.98;45.75;98622.88;4972979;28;20549;-63
2022/06/13 08:22:58;;;;;;;7.50;4.32;;;;;;;24.86;46.20;98618.34;4955290;28;20444;-62
2022/06/13 08:25:30;;;;;;;8.43;4.60;;;;;;;24.93;46.35;98624.69;4972189;28;20058;-61
2022/06/13 08:27:57;;;;;;;6.68;4.55;;;;;;;25.13;45.38;98619.34;4972759;28;20548;-63
2022/06/13 08:30:24;;;;;;;7.78;4.28;;;;;;;25.23;45.90;98623.47;4972729;28;20046;-60
2022/06/13 08:32:49;;;;;;;6.60;5.07;;;;;;;25.37;45.35;98619.16;4972039;28;20062;-62
2022/06/13 08:35:15;;;;;;;9.77;4.65;;;;;;;25.42;44.66;98620.81;4972094;28;20121;-61
2022/06/13 08:37:41;;;;;;;9.05;5.10;;;;;;;25.33;45.37;98615.59;4972232;28;20508;-60
2022/06/13 08:40:08;;;;;;;9.20;4.97;;;;;;;25.22;45.10;98606.41;4971669;28;20501;-61
2022/06/13 08:42:41;;;;;;;6.93;5.20;;;;;;;25.53;45.63;98613.69;4929600;28;20082;-61
2022/06/13 08:45:25;;;;;;;6.65;5.07;;;;;;;25.76;44.88;98608.31;4936381;28;20115;-61
2022/06/13 08:48:04;;;;;;;9.55;5.43;;;;;;;25.92;44.06;98605.56;4970612;28;20539;-63
2022/06/13 08:50:44;;;;;;;8.32;4.97;;;;;;;26.17;43.99;98608.75;4971534;28;20421;-63
2022/06/13 08:53:23;;;;;;;9.57;5.55;;;;;;;26.26;43.55;98605.78;4970720;28;20046;-61
2022/06/13 08:55:54;;;;;;;11.47;5.53;;;;;;;26.29;43.79;98602.34;4954732;28;20527;-60
2022/06/13 08:58:28;;;;;;;8.00;5.60;;;;;;;26.36;42.99;98602.50;4936797;28;20050;-60
2022/06/13 09:01:01;;;;;;;7.82;6.85;;;;;;;26.53;42.32;98593.09;4937008;28;20042;-59
2022/06/13 09:03:41;;;;;;;8.13;5.72;;;;;;;26.60;41.88;98593.22;4971215;28;20066;-61
2022/06/13 09:06:24;;;;;;;8.90;5.57;;;;;;;26.63;42.70;98595.22;4970320;28;20050;-60
2022/06/13 09:09:00;;;;;;;6.82;5.45;;;;;;;26.87;42.63;98593.25;4969683;28;20054;-63
2022/06/13 09:11:41;;;;;;;11.00;4.85;;;;;;;27.02;42.93;98591.53;4920469;28;20038;-61
2022/06/13 09:14:24;;;;;;;12.07;5.55;;;;;;;26.94;43.61;98585.19;4927903;28;20261;-61
2022/06/13 09:16:58;;;;;;;7.93;5.00;;;;;;;27.16;42.79;98583.59;4936937;28;20062;-60
2022/06/13 09:20:00;;;;;;;8.45;5.80;;;;;;;27.16;40.19;98575.44;4968386;28;20035;-62
2022/06/13 09:22:49;;;;;;;11.55;5.70;;;;;;;26.93;41.10;98568.09;4910860;28;20131;-62
2022/06/13 09:25:54;;;;;;;7.07;5.63;;;;;;;26.94;40.78;98574.31;4942783;28;20428;-61
2022/06/13 09:28:26;;;;;;;13.32;6.38;;;;;;;26.78;41.23;98569.03;4939011;28;20393;-65
2022/06/13 09:31:03;;;;;;;7.18;5.60;;;;;;;26.84;41.70;98569.50;4968492;28;20519;-63
2022/06/13 09:33:35;;;;;;;7.38;5.70;;;;;;;27.10;42.06;98571.44;4965929;28;20158;-59
2022/06/13 09:36:08;;;;;;;7.68;6.15;;;;;;;27.09;41.35;98569.88;4937013;28;20043;-62
2022/06/13 09:38:34;;;;;;;14.05;9.73;;;;;;;27.10;42.44;98569.50;4952318;28;20586;-62
2022/06/13 09:41:07;;;;;;;10.15;5.78;;;;;;;27.10;41.82;98572.22;4953086;28;20070;-60
2022/06/13 09:43:39;;;;;;;8.02;5.95;;;;;;;27.23;42.01;98570.09;4952819;28;20035;-62
2022/06/13 09:46:17;;;;;;;6.55;5.95;;;;;;;27.23;42.00;98566.59;4968816;28;20417;-61
2022/06/13 09:49:00;;;;;;;7.60;5.90;;;;;;;27.29;40.75;98565.13;4970163;28;20146;-63
2022/06/13 09:52:03;;;;;;;8.43;5.60;;;;;;;27.03;40.60;98560.47;4953644;28;20510;-62
2022/06/13 09:54:44;;;;;;;6.45;5.30;;;;;;;26.72;41.80;98551.47;4952843;28;20043;-59
2022/06/13 09:57:52;;;;;;;7.85;5.60;;;;;;;26.72;41.73;98556.91;4950717;29;20071;-62
2022/06/13 10:00:39;;;;;;;7.75;5.35;;;;;;;26.86;41.19;98557.13;4935479;28;20146;-61
2022/06/13 10:03:47;;;;;;;7.68;5.10;;;;;;;26.84;41.30;98559.41;4949959;28;20066;-61
2022/06/13 10:06:42;;;;;;;9.27;5.50;;;;;;;26.65;40.93;98554.88;4936654;28;20497;-63
2022/06/13 10:09:36;;;;;;;13.52;5.43;;;;;;;26.64;40.57;98550.56;4951224;28;20529;-62
2022/06/13 10:12:29;;;;;;;6.70;5.28;;;;;;;26.68;41.18;98537.06;4952954;28;20047;-61
2022/06/13 10:15:01;;;;;;;9.18;5.20;;;;;;;26.62;41.26;98541.22;4969138;28;20518;-61
2022/06/13 10:17:49;;;;;;;6.43;5.13;;;;;;;26.53;41.53;98535.25;4969205;28;20047;-61
2022/06/13 10:20:37;;;;;;;13.52;6.18;;;;;;;26.38;41.04;98526.81;4951718;28;20051;-61
2022/06/13 10:23:38;;;;;;;8.85;4.82;;;;;;;26.07;42.29;98527.88;4970440;28;20039;-62
2022/06/13 10:26:27;;;;;;;8.93;5.13;;;;;;;26.23;43.85;98528.53;4936548;28;20066;-61
2022/06/13 10:29:16;;;;;;;10.30;4.95;;;;;;;26.43;42.99;98523.03;4954917;28;20054;-61
2022/06/13 10:31:52;;;;;;;6.70;4.90;;;;;;;26.52;43.50;98529.03;4934761;28;20070;-62
2022/06/13 10:34:47;;;;;;;10.80;6.32;;;;;;;26.49;42.51;98516.13;4952176;28;20525;-60
2022/06/13 10:37:37;;;;;;;9.30;5.60;;;;;;;26.53;42.16;98513.50;4965871;28;20046;-61
2022/06/13 10:40:03;;;;;;;;;;;;;;;26.37;42.97;98511.69;4968287;28;20575;-61
2022/06/13 10:42:32;;;;;;;7.63;5.75;;;;;;;26.42;42.86;98522.25;4952358;28;20414;-62
2022/06/13 10:45:38;;;;;;;9.75;6.18;;;;;;;26.41;42.83;98530.75;4952470;28;20086;-60
2022/06/13 10:48:17;;;;;;;12.18;6.30;;;;;;;26.58;42.44;98524.06;4918165;28;20053;-61
2022/06/13 10:50:48;;;;;;;10.50;6.28;;;;;;;26.54;42.38;98532.19;4936167;28;20153;-62
2022/06/13 10:53:36;;;;;;;7.55;5.95;;;;;;;26.60;42.11;98527.22;4950634;28;20043;-60
2022/06/13 10:56:04;;;;;;;13.77;8.70;;;;;;;26.71;41.98;98522.72;4968230;28;20141;-60
2022/06/13 10:58:37;;;;;;;9.48;6.10;;;;;;;26.67;42.74;98517.22;4924033;28;20039;-63
2022/06/13 11:01:28;;;;;;;17.65;7.28;;;;;;;26.56;42.33;98515.50;4973408;28;20177;-61
2022/06/13 11:04:18;;;;;;;7.53;5.63;;;;;;;26.13;43.37;98512.06;4973503;28;20114;-61
2022/06/13 11:06:49;;;;;;;6.93;5.57;;;;;;;25.96;43.37;98511.38;4972548;28;20100;-61
2022/06/13 11:09:26;;;;;;;12.38;5.82;;;;;;;25.96;44.19;98521.47;4972050;28;20416;-60
2022/06/13 11:11:55;;;;;;;17.25;10.50;;;;;;;25.77;44.38;98522.25;4972422;28;20047;-61
2022/06/13 11:14:37;;;;;;;11.25;6.70;;;;;;;25.81;44.64;98518.47;4955853;28;20467;-61
2022/06/13 11:22:38;;;;;;;12.13;6.32;;;;;;;25.82;43.97;98514.66;4962612;28;20047;-61
2022/06/13 11:25:36;;;;;;;16.23;6.53;;;;;;;25.90;45.02;98517.47;4972170;28;20042;-61
2022/06/13 11:28:04;;;;;;;14.05;6.13;;;;;;;26.05;43.77;98511.94;4929013;28;20053;-61
2022/06/13 11:30:37;;;;;;;17.10;5.93;;;;;;;25.96;43.27;98505.19;4971870;28;20051;-62
2022/06/13 11:33:23;;;;;;;18.27;6.30;;;;;;;25.67;43.83;98518.19;4976844;28;20065;-61
2022/06/13 11:35:50;;;;;;;12.25;5.53;;;;;;;25.23;44.21;98514.97;4939021;29;20046;-62
2022/06/13 11:38:32;;;;;;;8.43;5.45;;;;;;;24.86;45.27;98521.53;4952942;29;20061;-62
2022/06/13 11:41:10;;;;;;;10.02;5.10;;;;;;;24.73;45.55;98519.28;4968733;28;20233;-62
2022/06/13 11:43:53;;;;;;;9.73;5.50;;;;;;;24.52;46.23;98514.94;4972051;28;20046;-62
2022/06/13 11:46:28;;;;;;;14.25;6.22;;;;;;;24.41;46.92;98513.88;4954212;28;20043;-61
2022/06/13 11:49:14;;;;;;;15.48;6.50;;;;;;;24.24;47.05;98515.81;4955468;28;20050;-61
2022/06/13 11:51:53;;;;;;;11.60;5.80;;;;;;;23.83;47.84;98508.97;4956589;28;20055;-61
2022/06/13 11:54:32;;;;;;;16.85;6.93;;;;;;;23.70;47.92;98523.66;4971411;28;20046;-62
2022/06/13 11:57:30;;;;;;;14.30;5.90;;;;;;;23.61;50.73;98550.06;4954395;28;20456;-61
2022/06/13 12:00:16;;;;;;;14.13;7.00;;;;;;;23.07;66.71;98575.53;4942574;28;20057;-62
2022/06/13 12:02:41;;;;;;;20.25;9.13;;;;;;;22.10;74.01;98560.78;4953663;28;20047;-66
2022/06/13 12:05:28;;;;;;;21.85;9.40;;;;;;;21.51;77.45;98557.19;4953999;28;20050;-62
2022/06/13 12:07:59;;;;;;;16.42;9.57;;;;;;;20.95;81.09;98570.09;4971622;28;20337;-61
2022/06/13 12:10:30;;;;;;;11.07;8.50;;;;;;;20.64;81.33;98563.09;4971336;28;20047;-62
2022/06/13 12:12:56;;;;;;;9.10;8.10;;;;;;;20.47;80.76;98573.13;4970910;28;20092;-62
2022/06/13 12:15:30;;;;;;;13.20;9.02;;;;;;;20.40;82.66;98568.25;4970222;28;20512;-61
2022/06/13 12:18:04;;;;;;;11.70;8.77;;;;;;;20.30;80.26;98580.16;4971182;28;20050;-62
2022/06/13 12:20:49;;;;;;;9.48;7.85;;;;;;;20.14;79.30;98577.16;4969855;28;20110;-62
2022/06/13 12:23:24;;;;;;;14.57;8.88;;;;;;;20.07;81.88;98576.09;4953086;28;20126;-61